createdAt,value
2023-01-22T00:00:00.098Z, 0
2023-01-22T00:02:00.096Z, 0
2023-01-22T00:04:00.233Z, 0
2023-01-22T00:06:00.102Z, 0
2023-01-22T00:08:00.311Z, 0
2023-01-22T00:10:00.268Z, 0
2023-01-22T00:12:00.100Z, 0
2023-01-22T00:14:00.071Z, 0
2023-01-22T00:16:00.285Z, 0
2023-01-22T00:18:00.107Z, 0
2023-01-22T00:20:00.141Z, 0
2023-01-22T00:22:00.094Z, 0
2023-01-22T00:24:00.094Z, 0
2023-01-22T00:26:00.092Z, 0
2023-01-22T00:28:00.293Z, 0
2023-01-22T00:30:00.091Z, 0
2023-01-22T00:32:00.224Z, 0
2023-01-22T00:34:00.109Z, 0
2023-01-22T00:36:00.094Z, 0
2023-01-22T00:38:00.094Z, 0
2023-01-22T00:40:00.148Z, 0
2023-01-22T00:42:00.112Z, 0
2023-01-22T00:44:00.137Z, 0
2023-01-22T00:46:00.105Z, 0
2023-01-22T00:48:00.105Z, 0
2023-01-22T00:50:00.106Z, 0
2023-01-22T00:52:00.100Z, 0
2023-01-22T00:54:00.099Z, 0
2023-01-22T00:56:00.160Z, 0
2023-01-22T00:58:00.099Z, 0
2023-01-22T01:00:00.135Z, 0
2023-01-22T01:02:00.119Z, 0
2023-01-22T01:04:00.090Z, 0
2023-01-22T01:06:00.080Z, 0
2023-01-22T01:08:00.118Z, 0
2023-01-22T01:10:00.128Z, 0
2023-01-22T01:12:00.121Z, 0
2023-01-22T01:14:00.097Z, 0
2023-01-22T01:16:00.199Z, 0
2023-01-22T01:18:00.115Z, 0
2023-01-22T01:20:00.135Z, 0
2023-01-22T01:22:00.107Z, 0
2023-01-22T01:24:00.115Z, 0
2023-01-22T01:26:00.107Z, 0
2023-01-22T01:28:00.095Z, 0
2023-01-22T01:30:00.127Z, 0
2023-01-22T01:32:00.165Z, 0
2023-01-22T01:34:00.107Z, 0
2023-01-22T01:36:00.106Z, 0
2023-01-22T01:38:00.117Z, 0
2023-01-22T01:40:00.199Z, 0
2023-01-22T01:42:00.107Z, 0
2023-01-22T01:44:00.306Z, 0
2023-01-22T01:46:00.281Z, 0
2023-01-22T01:48:00.262Z, 0
2023-01-22T01:50:00.095Z, 0
2023-01-22T01:52:00.117Z, 0
2023-01-22T01:54:00.125Z, 0
2023-01-22T01:56:00.124Z, 0
2023-01-22T01:58:00.078Z, 0
2023-01-22T02:00:00.094Z, 0
2023-01-22T02:02:00.166Z, 0
2023-01-22T02:04:00.091Z, 0
2023-01-22T02:06:00.110Z, 0
2023-01-22T02:08:00.112Z, 0
2023-01-22T02:10:00.092Z, 0
2023-01-22T02:12:00.097Z, 0
2023-01-22T02:14:00.102Z, 0
2023-01-22T02:16:00.168Z, 0
2023-01-22T02:18:00.092Z, 0
2023-01-22T02:20:00.127Z, 0
2023-01-22T02:22:00.072Z, 0
2023-01-22T02:24:00.114Z, 0
2023-01-22T02:26:00.100Z, 0
2023-01-22T02:28:00.103Z, 0
2023-01-22T02:30:00.131Z, 0
2023-01-22T02:32:00.096Z, 0
2023-01-22T02:34:00.116Z, 0
2023-01-22T02:36:00.112Z, 0
2023-01-22T02:38:00.100Z, 0
2023-01-22T02:40:00.121Z, 0
2023-01-22T02:42:00.110Z, 0
2023-01-22T02:44:00.087Z, 0
2023-01-22T02:46:00.112Z, 0
2023-01-22T02:48:00.058Z, 0
2023-01-22T02:50:00.103Z, 0
2023-01-22T02:52:00.111Z, 0
2023-01-22T02:54:00.107Z, 0
2023-01-22T02:56:00.102Z, 0
2023-01-22T02:58:00.091Z, 0
2023-01-22T03:00:00.406Z, 0
2023-01-22T03:02:00.126Z, 0
2023-01-22T03:04:00.089Z, 0
2023-01-22T03:06:00.103Z, 0
2023-01-22T03:08:00.101Z, 0
2023-01-22T03:10:00.100Z, 0
2023-01-22T03:12:00.155Z, 0
2023-01-22T03:14:00.097Z, 0
2023-01-22T03:16:00.119Z, 0
2023-01-22T03:18:00.123Z, 0
2023-01-22T03:20:00.113Z, 0
2023-01-22T03:22:00.099Z, 0
2023-01-22T03:24:00.086Z, 0
2023-01-22T03:26:00.073Z, 0
2023-01-22T03:28:00.117Z, 0
2023-01-22T03:30:00.104Z, 0
2023-01-22T03:32:00.153Z, 0
2023-01-22T03:34:00.073Z, 0
2023-01-22T03:36:00.108Z, 0
2023-01-22T03:38:00.100Z, 0
2023-01-22T03:40:00.113Z, 0
2023-01-22T03:42:00.106Z, 0
2023-01-22T03:44:00.094Z, 0
2023-01-22T03:46:00.128Z, 0
2023-01-22T03:48:00.111Z, 0
2023-01-22T03:50:00.109Z, 0
2023-01-22T03:52:00.119Z, 0
2023-01-22T03:54:00.097Z, 0
2023-01-22T03:56:00.099Z, 0
2023-01-22T03:58:00.095Z, 0
2023-01-22T04:00:00.097Z, 0
2023-01-22T04:02:00.255Z, 0
2023-01-22T04:04:00.145Z, 0
2023-01-22T04:06:00.107Z, 0
2023-01-22T04:08:00.110Z, 0
2023-01-22T04:10:00.104Z, 0
2023-01-22T04:12:00.111Z, 0
2023-01-22T04:14:00.102Z, 0
2023-01-22T04:16:00.099Z, 0
2023-01-22T04:18:00.119Z, 0
2023-01-22T04:20:00.143Z, 0
2023-01-22T04:22:00.107Z, 0
2023-01-22T04:24:00.108Z, 0
2023-01-22T04:26:00.087Z, 0
2023-01-22T04:28:00.085Z, 0
2023-01-22T04:30:00.163Z, 0
2023-01-22T04:32:00.335Z, 0
2023-01-22T04:34:00.110Z, 0
2023-01-22T04:36:00.116Z, 0
2023-01-22T04:38:00.097Z, 0
2023-01-22T04:40:00.095Z, 0
2023-01-22T04:42:00.110Z, 0
2023-01-22T04:44:00.100Z, 0
2023-01-22T04:46:00.143Z, 0
2023-01-22T04:48:00.100Z, 0
2023-01-22T04:50:00.144Z, 0
2023-01-22T04:52:00.136Z, 0
2023-01-22T04:54:00.108Z, 0
2023-01-22T04:56:00.116Z, 0
2023-01-22T04:58:00.155Z, 0
2023-01-22T05:00:00.145Z, 0
2023-01-22T05:02:00.267Z, 0
2023-01-22T05:04:00.112Z, 0
2023-01-22T05:06:00.108Z, 0
2023-01-22T05:08:00.127Z, 0
2023-01-22T05:10:00.121Z, 0
2023-01-22T05:12:00.075Z, 0
2023-01-22T05:14:00.094Z, 0
2023-01-22T05:16:00.185Z, 0
2023-01-22T05:18:00.103Z, 0
2023-01-22T05:20:00.118Z, 0
2023-01-22T05:22:00.109Z, 0
2023-01-22T05:24:00.096Z, 0
2023-01-22T05:26:00.108Z, 0
2023-01-22T05:28:00.129Z, 0
2023-01-22T05:30:00.118Z, 0
2023-01-22T05:32:00.087Z, 0
2023-01-22T05:34:00.094Z, 0
2023-01-22T05:36:00.124Z, 0
2023-01-22T05:38:00.094Z, 0
2023-01-22T05:40:00.114Z, 0
2023-01-22T05:42:00.121Z, 0
2023-01-22T05:44:00.096Z, 0
2023-01-22T05:46:00.175Z, 0
2023-01-22T05:48:00.111Z, 0
2023-01-22T05:50:00.097Z, 0
2023-01-22T05:52:00.194Z, 0
2023-01-22T05:54:00.095Z, 0
2023-01-22T05:56:00.123Z, 0
2023-01-22T05:58:00.107Z, 0
2023-01-22T06:00:00.120Z, 0
2023-01-22T06:02:00.075Z, 0
2023-01-22T06:04:00.136Z, 0
2023-01-22T06:06:00.131Z, 0
2023-01-22T06:08:00.128Z, 0
2023-01-22T06:10:00.089Z, 0
2023-01-22T06:12:00.117Z, 0
2023-01-22T06:14:00.101Z, 0
2023-01-22T06:16:00.319Z, 0
2023-01-22T06:18:00.087Z, 0
2023-01-22T06:20:00.150Z, 0
2023-01-22T06:22:00.079Z, 0
2023-01-22T06:24:00.102Z, 0
2023-01-22T06:26:00.112Z, 0
2023-01-22T06:28:00.095Z, 0
2023-01-22T06:30:00.149Z, 0
2023-01-22T06:32:00.107Z, 0
2023-01-22T06:34:00.099Z, 0
2023-01-22T06:36:00.104Z, 0
2023-01-22T06:38:00.105Z, 0
2023-01-22T06:40:00.152Z, 0
2023-01-22T06:42:00.161Z, 0
2023-01-22T06:44:00.399Z, 0
2023-01-22T06:46:00.117Z, 0
2023-01-22T06:48:00.096Z, 0
2023-01-22T06:50:00.113Z, 0
2023-01-22T06:52:00.080Z, 0
2023-01-22T06:54:00.092Z, 1
2023-01-22T06:56:00.106Z, 3
2023-01-22T06:58:00.102Z, 5
2023-01-22T07:00:00.114Z, 6
2023-01-22T07:02:00.209Z, 9
2023-01-22T07:04:00.222Z, 12
2023-01-22T07:06:00.089Z, 17
2023-01-22T07:08:00.087Z, 21
2023-01-22T07:10:00.106Z, 27
2023-01-22T07:12:00.096Z, 33
2023-01-22T07:14:00.113Z, 37
2023-01-22T07:16:00.243Z, 43
2023-01-22T07:18:00.125Z, 53
2023-01-22T07:20:00.107Z, 58
2023-01-22T07:22:00.094Z, 65
2023-01-22T07:24:00.111Z, 76
2023-01-22T07:26:00.076Z, 90
2023-01-22T07:28:00.118Z, 97
2023-01-22T07:30:00.116Z, 108
2023-01-22T07:32:00.160Z, 120
2023-01-22T07:34:00.072Z, 130
2023-01-22T07:36:00.105Z, 148
2023-01-22T07:38:00.111Z, 171
2023-01-22T07:40:00.076Z, 205
2023-01-22T07:42:00.118Z, 244
2023-01-22T07:44:00.112Z, 272
2023-01-22T07:46:00.115Z, 295
2023-01-22T07:48:00.112Z, 326
2023-01-22T07:50:00.099Z, 355
2023-01-22T07:52:00.076Z, 381
2023-01-22T07:54:00.103Z, 398
2023-01-22T07:56:00.103Z, 411
2023-01-22T07:58:00.116Z, 461
2023-01-22T08:00:00.097Z, 480
2023-01-22T08:02:03.099Z, 470
2023-01-22T08:04:00.099Z, 500
2023-01-22T08:06:00.086Z, 553
2023-01-22T08:08:00.087Z, 608
2023-01-22T08:10:00.102Z, 693
2023-01-22T08:12:00.096Z, 766
2023-01-22T08:14:00.117Z, 826
2023-01-22T08:16:00.191Z, 911
2023-01-22T08:18:00.118Z, 1004
2023-01-22T08:20:00.162Z, 1087
2023-01-22T08:22:00.088Z, 1169
2023-01-22T08:24:00.100Z, 1208
2023-01-22T08:26:00.112Z, 1195
2023-01-22T08:28:00.095Z, 1194
2023-01-22T08:30:00.094Z, 1219
2023-01-22T08:32:00.250Z, 1270
2023-01-22T08:34:00.093Z, 1321
2023-01-22T08:36:00.102Z, 1324
2023-01-22T08:38:00.098Z, 1379
2023-01-22T08:40:00.110Z, 1510
2023-01-22T08:42:00.061Z, 1619
2023-01-22T08:44:00.066Z, 1560
2023-01-22T08:46:00.201Z, 1392
2023-01-22T08:48:00.076Z, 1350
2023-01-22T08:50:00.108Z, 1410
2023-01-22T08:52:00.095Z, 1534
2023-01-22T08:54:00.127Z, 1797
2023-01-22T08:56:00.097Z, 1973
2023-01-22T08:58:00.070Z, 2135
2023-01-22T09:00:01.436Z, 2258
2023-01-22T09:02:00.189Z, 2412
2023-01-22T09:04:00.075Z, 2483
2023-01-22T09:06:00.108Z, 2490
2023-01-22T09:08:00.122Z, 2490
2023-01-22T09:10:00.106Z, 2431
2023-01-22T09:12:00.107Z, 2390
2023-01-22T09:14:00.107Z, 2436
2023-01-22T09:16:00.131Z, 2555
2023-01-22T09:18:00.101Z, 2570
2023-01-22T09:20:00.093Z, 2688
2023-01-22T09:22:00.093Z, 2990
2023-01-22T09:24:00.100Z, 2899
2023-01-22T09:26:00.113Z, 2895
2023-01-22T09:28:00.127Z, 2912
2023-01-22T09:30:00.140Z, 2627
2023-01-22T09:32:00.153Z, 2286
2023-01-22T09:34:00.111Z, 2299
2023-01-22T09:36:00.117Z, 2555
2023-01-22T09:38:00.164Z, 2799
2023-01-22T09:40:00.103Z, 2830
2023-01-22T09:42:00.106Z, 2958
2023-01-22T09:44:00.112Z, 3292
2023-01-22T09:46:00.171Z, 3712
2023-01-22T09:48:00.106Z, 3973
2023-01-22T09:50:00.123Z, 4770
2023-01-22T09:52:00.122Z, 4960
2023-01-22T09:54:00.117Z, 4723
2023-01-22T09:56:00.120Z, 4416
2023-01-22T09:58:00.113Z, 4007
2023-01-22T10:00:00.123Z, 3585
2023-01-22T10:02:00.149Z, 3490
2023-01-22T10:04:00.111Z, 3745
2023-01-22T10:06:00.099Z, 3972
2023-01-22T10:08:00.101Z, 4125
2023-01-22T10:10:00.100Z, 3878
2023-01-22T10:12:00.113Z, 3424
2023-01-22T10:14:00.119Z, 3016
2023-01-22T10:16:00.086Z, 2608
2023-01-22T10:18:00.123Z, 2481
2023-01-22T10:20:00.107Z, 2553
2023-01-22T10:22:00.115Z, 2697
2023-01-22T10:24:00.091Z, 2705
2023-01-22T10:26:00.123Z, 2680
2023-01-22T10:28:00.129Z, 2639
2023-01-22T10:30:00.112Z, 2570
2023-01-22T10:32:00.243Z, 2641
2023-01-22T10:34:00.116Z, 2708
2023-01-22T10:36:00.093Z, 2673
2023-01-22T10:38:00.088Z, 2708
2023-01-22T10:40:00.102Z, 2777
2023-01-22T10:42:00.110Z, 2786
2023-01-22T10:44:00.239Z, 2798
2023-01-22T10:46:00.125Z, 2946
2023-01-22T10:48:00.107Z, 3023
2023-01-22T10:50:00.125Z, 3032
2023-01-22T10:52:00.122Z, 3080
2023-01-22T10:54:00.140Z, 3141
2023-01-22T10:56:00.117Z, 3184
2023-01-22T10:58:00.424Z, 3306
2023-01-22T11:00:00.217Z, 3468
2023-01-22T11:02:00.108Z, 3532
2023-01-22T11:04:00.133Z, 3555
2023-01-22T11:06:00.103Z, 3576
2023-01-22T11:08:00.113Z, 3435
2023-01-22T11:10:00.239Z, 3235
2023-01-22T11:12:00.118Z, 3085
2023-01-22T11:14:00.116Z, 3054
2023-01-22T11:16:00.209Z, 3047
2023-01-22T11:18:00.094Z, 3052
2023-01-22T11:20:00.117Z, 3096
2023-01-22T11:22:00.101Z, 3135
2023-01-22T11:24:00.101Z, 3150
2023-01-22T11:26:00.097Z, 3218
2023-01-22T11:28:00.086Z, 3334
2023-01-22T11:30:00.157Z, 3265
2023-01-22T11:32:00.102Z, 3198
2023-01-22T11:34:00.112Z, 3241
2023-01-22T11:36:00.090Z, 3282
2023-01-22T11:38:00.107Z, 3292
2023-01-22T11:40:00.158Z, 3271
2023-01-22T11:42:00.076Z, 3227
2023-01-22T11:44:00.111Z, 3100
2023-01-22T11:46:00.128Z, 3002
2023-01-22T11:48:00.079Z, 2895
2023-01-22T11:50:00.117Z, 2750
2023-01-22T11:52:00.092Z, 2663
2023-01-22T11:54:00.101Z, 2630
2023-01-22T11:56:00.172Z, 2606
2023-01-22T11:58:00.092Z, 2620
2023-01-22T12:00:00.166Z, 2648
2023-01-22T12:02:00.105Z, 2631
2023-01-22T12:04:00.174Z, 2650
2023-01-22T12:06:00.092Z, 2663
2023-01-22T12:08:00.104Z, 2655
2023-01-22T12:10:00.103Z, 2672
2023-01-22T12:12:00.099Z, 2706
2023-01-22T12:14:00.106Z, 2680
2023-01-22T12:16:00.156Z, 2690
2023-01-22T12:18:00.092Z, 2727
2023-01-22T12:20:00.106Z, 2721
2023-01-22T12:22:00.113Z, 2785
2023-01-22T12:24:00.101Z, 2836
2023-01-22T12:26:00.094Z, 2959
2023-01-22T12:28:00.103Z, 3097
2023-01-22T12:30:00.093Z, 3083
2023-01-22T12:32:00.140Z, 2991
2023-01-22T12:34:00.097Z, 2897
2023-01-22T12:36:00.114Z, 2824
2023-01-22T12:38:00.114Z, 2840
2023-01-22T12:40:00.082Z, 2816
2023-01-22T12:42:00.105Z, 2746
2023-01-22T12:44:00.099Z, 2684
2023-01-22T12:46:00.100Z, 2648
2023-01-22T12:48:00.125Z, 2670
2023-01-22T12:50:00.126Z, 2614
2023-01-22T12:52:00.193Z, 2575
2023-01-22T12:54:00.083Z, 2587
2023-01-22T12:56:00.067Z, 2595
2023-01-22T12:58:00.133Z, 2630
2023-01-22T13:00:00.093Z, 2620
2023-01-22T13:02:00.234Z, 2598
2023-01-22T13:04:00.125Z, 2584
2023-01-22T13:06:00.300Z, 2538
2023-01-22T13:08:00.115Z, 2525
2023-01-22T13:10:00.118Z, 2510
2023-01-22T13:12:00.096Z, 2447
2023-01-22T13:14:09.965Z, 2422
2023-01-22T13:16:00.206Z, 2420
2023-01-22T13:18:06.541Z, 2359
2023-01-22T13:20:00.126Z, 2333
2023-01-22T13:22:00.107Z, 2328
2023-01-22T13:24:00.082Z, 2335
2023-01-22T13:26:00.108Z, 2332
2023-01-22T13:28:00.081Z, 2362
2023-01-22T13:30:00.121Z, 2345
2023-01-22T13:32:00.236Z, 2330
2023-01-22T13:34:00.086Z, 2272
2023-01-22T13:36:00.088Z, 2168
2023-01-22T13:38:00.105Z, 2160
2023-01-22T13:40:00.111Z, 2189
2023-01-22T13:42:00.077Z, 2200
2023-01-22T13:44:00.089Z, 2195
2023-01-22T13:46:00.103Z, 2131
2023-01-22T13:48:00.099Z, 2084
2023-01-22T13:50:00.094Z, 2040
2023-01-22T13:52:00.105Z, 1953
2023-01-22T13:54:00.114Z, 1916
2023-01-22T13:56:00.149Z, 1875
2023-01-22T13:58:00.111Z, 1845
2023-01-22T14:00:00.144Z, 1801
2023-01-22T14:02:00.177Z, 1748
2023-01-22T14:04:00.117Z, 1706
2023-01-22T14:06:00.116Z, 1715
2023-01-22T14:08:00.097Z, 1726
2023-01-22T14:10:00.113Z, 1745
2023-01-22T14:12:00.105Z, 1755
2023-01-22T14:14:00.110Z, 1711
2023-01-22T14:16:00.233Z, 1624
2023-01-22T14:18:00.096Z, 1531
2023-01-22T14:20:00.120Z, 1479
2023-01-22T14:22:00.103Z, 1442
2023-01-22T14:24:00.096Z, 1390
2023-01-22T14:26:00.109Z, 1336
2023-01-22T14:28:00.153Z, 1296
2023-01-22T14:30:00.142Z, 1290
2023-01-22T14:32:00.104Z, 1252
2023-01-22T14:34:00.068Z, 1218
2023-01-22T14:36:00.069Z, 1181
2023-01-22T14:38:00.103Z, 1162
2023-01-22T14:40:00.195Z, 1142
2023-01-22T14:42:00.264Z, 1088
2023-01-22T14:44:00.149Z, 1060
2023-01-22T14:46:00.175Z, 1045
2023-01-22T14:48:00.082Z, 1019
2023-01-22T14:50:00.228Z, 984
2023-01-22T14:52:00.105Z, 952
2023-01-22T14:54:00.126Z, 946
2023-01-22T14:56:00.312Z, 945
2023-01-22T14:58:00.112Z, 940
2023-01-22T15:00:00.100Z, 920
2023-01-22T15:02:00.199Z, 878
2023-01-22T15:04:00.099Z, 849
2023-01-22T15:06:00.119Z, 800
2023-01-22T15:08:00.100Z, 769
2023-01-22T15:10:00.139Z, 738
2023-01-22T15:12:00.109Z, 719
2023-01-22T15:14:00.107Z, 703
2023-01-22T15:16:00.084Z, 670
2023-01-22T15:18:00.155Z, 644
2023-01-22T15:20:00.083Z, 602
2023-01-22T15:22:00.076Z, 579
2023-01-22T15:24:00.115Z, 567
2023-01-22T15:26:00.128Z, 557
2023-01-22T15:28:00.085Z, 520
2023-01-22T15:30:00.135Z, 485
2023-01-22T15:32:00.148Z, 467
2023-01-22T15:34:00.111Z, 430
2023-01-22T15:36:00.108Z, 398
2023-01-22T15:38:00.375Z, 381
2023-01-22T15:40:00.169Z, 348
2023-01-22T15:42:00.154Z, 320
2023-01-22T15:44:00.334Z, 285
2023-01-22T15:46:00.198Z, 261
2023-01-22T15:48:00.112Z, 240
2023-01-22T15:50:00.128Z, 215
2023-01-22T15:52:00.161Z, 199
2023-01-22T15:54:00.140Z, 170
2023-01-22T15:56:00.161Z, 147
2023-01-22T15:58:00.161Z, 128
2023-01-22T16:00:00.280Z, 108
2023-01-22T16:02:00.112Z, 90
2023-01-22T16:04:00.132Z, 75
2023-01-22T16:06:00.130Z, 65
2023-01-22T16:08:00.136Z, 54
2023-01-22T16:10:00.125Z, 43
2023-01-22T16:12:00.120Z, 35
2023-01-22T16:14:00.111Z, 26
2023-01-22T16:16:00.084Z, 20
2023-01-22T16:18:00.111Z, 15
2023-01-22T16:20:00.139Z, 10
2023-01-22T16:22:00.113Z, 8
2023-01-22T16:24:00.122Z, 5
2023-01-22T16:26:00.089Z, 4
2023-01-22T16:28:00.097Z, 2
2023-01-22T16:30:00.105Z, 1
2023-01-22T16:32:00.071Z, 0
2023-01-22T16:34:00.124Z, 0
2023-01-22T16:36:00.110Z, 0
2023-01-22T16:38:00.111Z, 0
2023-01-22T16:40:00.137Z, 0
2023-01-22T16:42:00.107Z, 0
2023-01-22T16:44:00.104Z, 0
2023-01-22T16:46:00.182Z, 0
2023-01-22T16:48:00.110Z, 0
2023-01-22T16:50:00.098Z, 0
2023-01-22T16:52:05.106Z, 0
2023-01-22T16:54:00.134Z, 0
2023-01-22T16:56:00.094Z, 0
2023-01-22T16:58:00.169Z, 0
2023-01-22T17:00:00.226Z, 0
2023-01-22T17:02:00.107Z, 0
2023-01-22T17:04:00.101Z, 0
2023-01-22T17:06:00.121Z, 0
2023-01-22T17:08:00.104Z, 0
2023-01-22T17:10:00.182Z, 0
2023-01-22T17:12:00.114Z, 0
2023-01-22T17:14:00.097Z, 0
2023-01-22T17:16:00.190Z, 0
2023-01-22T17:18:00.086Z, 0
2023-01-22T17:20:00.109Z, 0
2023-01-22T17:22:00.160Z, 0
2023-01-22T17:24:00.133Z, 0
2023-01-22T17:26:00.131Z, 0
2023-01-22T17:28:00.121Z, 0
2023-01-22T17:30:00.178Z, 0
2023-01-22T17:32:00.091Z, 0
2023-01-22T17:34:00.096Z, 0
2023-01-22T17:36:00.114Z, 0
2023-01-22T17:38:00.116Z, 0
2023-01-22T17:40:00.207Z, 0
2023-01-22T17:42:00.094Z, 0
2023-01-22T17:44:00.095Z, 0
2023-01-22T17:46:00.215Z, 0
2023-01-22T17:48:00.088Z, 0
2023-01-22T17:50:00.083Z, 0
2023-01-22T17:52:00.054Z, 0
2023-01-22T17:54:00.108Z, 0
2023-01-22T17:56:00.099Z, 0
2023-01-22T17:58:00.096Z, 0
2023-01-22T18:00:00.082Z, 0
2023-01-22T18:02:00.140Z, 0
2023-01-22T18:04:00.096Z, 0
2023-01-22T18:06:00.101Z, 0
2023-01-22T18:08:00.103Z, 0
2023-01-22T18:10:00.177Z, 0
2023-01-22T18:12:00.069Z, 0
2023-01-22T18:14:00.095Z, 0
2023-01-22T18:16:00.151Z, 0
2023-01-22T18:18:00.105Z, 0
2023-01-22T18:20:00.101Z, 0
2023-01-22T18:22:00.112Z, 0
2023-01-22T18:24:00.085Z, 0
2023-01-22T18:26:00.098Z, 0
2023-01-22T18:28:00.160Z, 0
2023-01-22T18:30:00.088Z, 0
2023-01-22T18:32:00.236Z, 0
2023-01-22T18:34:00.085Z, 0
2023-01-22T18:36:00.111Z, 0
2023-01-22T18:38:00.077Z, 0
2023-01-22T18:40:00.116Z, 0
2023-01-22T18:42:00.103Z, 0
2023-01-22T18:44:00.133Z, 0
2023-01-22T18:46:00.099Z, 0
2023-01-22T18:48:00.116Z, 0
2023-01-22T18:50:00.092Z, 0
2023-01-22T18:52:00.120Z, 0
2023-01-22T18:54:00.070Z, 0
2023-01-22T18:56:00.194Z, 0
2023-01-22T18:58:00.108Z, 0
2023-01-22T19:00:00.134Z, 0
2023-01-22T19:02:00.177Z, 0
2023-01-22T19:04:00.173Z, 0
2023-01-22T19:06:00.102Z, 0
2023-01-22T19:08:00.067Z, 0
2023-01-22T19:10:00.117Z, 0
2023-01-22T19:12:00.136Z, 0
2023-01-22T19:14:00.105Z, 0
2023-01-22T19:16:00.162Z, 0
2023-01-22T19:18:00.108Z, 0
2023-01-22T19:20:00.135Z, 0
2023-01-22T19:22:00.119Z, 0
2023-01-22T19:24:00.132Z, 0
2023-01-22T19:26:00.095Z, 0
2023-01-22T19:28:00.087Z, 0
2023-01-22T19:30:00.107Z, 0
2023-01-22T19:32:00.233Z, 0
2023-01-22T19:34:00.100Z, 0
2023-01-22T19:36:00.107Z, 0
2023-01-22T19:38:00.127Z, 0
2023-01-22T19:40:00.115Z, 0
2023-01-22T19:42:00.106Z, 0
2023-01-22T19:44:00.121Z, 0
2023-01-22T19:46:00.099Z, 0
2023-01-22T19:48:00.124Z, 0
2023-01-22T19:50:00.120Z, 0
2023-01-22T19:52:00.104Z, 0
2023-01-22T19:54:00.093Z, 0
2023-01-22T19:56:00.092Z, 0
2023-01-22T19:58:00.111Z, 0
2023-01-22T20:00:00.112Z, 0
2023-01-22T20:02:00.575Z, 0
2023-01-22T20:04:00.105Z, 0
2023-01-22T20:06:00.106Z, 0
2023-01-22T20:08:00.298Z, 0
2023-01-22T20:10:00.194Z, 0
2023-01-22T20:12:00.111Z, 0
2023-01-22T20:14:00.376Z, 0
2023-01-22T20:16:00.329Z, 0
2023-01-22T20:18:00.404Z, 0
2023-01-22T20:20:00.413Z, 0
2023-01-22T20:22:00.096Z, 0
2023-01-22T20:24:00.087Z, 0
2023-01-22T20:26:00.088Z, 0
2023-01-22T20:28:00.100Z, 0
2023-01-22T20:30:00.105Z, 0
2023-01-22T20:32:00.147Z, 0
2023-01-22T20:34:00.085Z, 0
2023-01-22T20:36:00.123Z, 0
2023-01-22T20:38:00.136Z, 0
2023-01-22T20:40:00.105Z, 0
2023-01-22T20:42:00.106Z, 0
2023-01-22T20:44:00.101Z, 0
2023-01-22T20:46:00.210Z, 0
2023-01-22T20:48:00.095Z, 0
2023-01-22T20:50:00.100Z, 0
2023-01-22T20:52:00.103Z, 0
2023-01-22T20:54:00.104Z, 0
2023-01-22T20:56:00.109Z, 0
2023-01-22T20:58:00.101Z, 0
2023-01-22T21:00:00.090Z, 0
2023-01-22T21:02:00.137Z, 0
2023-01-22T21:04:00.109Z, 0
2023-01-22T21:06:00.094Z, 0
2023-01-22T21:08:00.094Z, 0
2023-01-22T21:10:00.111Z, 0
2023-01-22T21:12:00.102Z, 0
2023-01-22T21:14:00.096Z, 0
2023-01-22T21:16:00.173Z, 0
2023-01-22T21:18:00.100Z, 0
2023-01-22T21:20:00.090Z, 0
2023-01-22T21:22:00.113Z, 0
2023-01-22T21:24:00.114Z, 0
2023-01-22T21:26:00.114Z, 0
2023-01-22T21:28:00.129Z, 0
2023-01-22T21:30:00.095Z, 0
2023-01-22T21:32:00.152Z, 0
2023-01-22T21:34:00.095Z, 0
2023-01-22T21:36:00.096Z, 0
2023-01-22T21:38:00.099Z, 0
2023-01-22T21:40:00.090Z, 0
2023-01-22T21:42:00.121Z, 0
2023-01-22T21:44:00.117Z, 0
2023-01-22T21:46:00.159Z, 0
2023-01-22T21:48:00.075Z, 0
2023-01-22T21:50:00.105Z, 0
2023-01-22T21:52:00.108Z, 0
2023-01-22T21:54:00.107Z, 0
2023-01-22T21:56:00.100Z, 0
2023-01-22T21:58:00.089Z, 0
2023-01-22T22:00:00.105Z, 0
2023-01-22T22:02:00.180Z, 0
2023-01-22T22:04:00.072Z, 0
2023-01-22T22:06:02.016Z, 0
2023-01-22T22:08:00.095Z, 0
2023-01-22T22:10:00.100Z, 0
2023-01-22T22:12:00.141Z, 0
2023-01-22T22:14:00.095Z, 0
2023-01-22T22:16:00.097Z, 0
2023-01-22T22:18:00.100Z, 0
2023-01-22T22:20:00.122Z, 0
2023-01-22T22:22:00.100Z, 0
2023-01-22T22:24:00.095Z, 0
2023-01-22T22:26:00.110Z, 0
2023-01-22T22:28:00.097Z, 0
2023-01-22T22:30:00.107Z, 0
2023-01-22T22:32:00.142Z, 0
2023-01-22T22:34:00.131Z, 0
2023-01-22T22:36:00.101Z, 0
2023-01-22T22:38:00.108Z, 0
2023-01-22T22:40:00.120Z, 0
2023-01-22T22:42:00.088Z, 0
2023-01-22T22:44:00.108Z, 0
2023-01-22T22:46:00.182Z, 0
2023-01-22T22:48:00.313Z, 0
2023-01-22T22:50:00.110Z, 0
2023-01-22T22:52:00.101Z, 0
2023-01-22T22:54:00.111Z, 0
2023-01-22T22:56:00.102Z, 0
2023-01-22T22:58:00.116Z, 0
2023-01-22T23:00:00.325Z, 0
2023-01-22T23:02:00.082Z, 0
2023-01-22T23:04:00.281Z, 0
2023-01-22T23:06:00.108Z, 0
2023-01-22T23:08:00.097Z, 0
2023-01-22T23:10:00.132Z, 0
2023-01-22T23:12:00.110Z, 0
2023-01-22T23:14:00.103Z, 0
2023-01-22T23:16:00.106Z, 0
2023-01-22T23:18:00.094Z, 0
2023-01-22T23:20:00.092Z, 0
2023-01-22T23:22:00.138Z, 0
2023-01-22T23:24:00.120Z, 0
2023-01-22T23:26:00.102Z, 0
2023-01-22T23:28:00.119Z, 0
2023-01-22T23:30:00.103Z, 0
2023-01-22T23:32:00.104Z, 0
2023-01-22T23:34:00.119Z, 0
2023-01-22T23:36:00.108Z, 0
2023-01-22T23:38:00.112Z, 0
2023-01-22T23:40:00.095Z, 0
2023-01-22T23:42:00.100Z, 0
2023-01-22T23:44:00.302Z, 0
2023-01-22T23:46:00.196Z, 0
2023-01-22T23:48:00.091Z, 0
2023-01-22T23:50:00.126Z, 0
2023-01-22T23:52:00.449Z, 0
2023-01-22T23:54:00.134Z, 0
2023-01-22T23:56:00.108Z, 0
2023-01-22T23:58:00.100Z, 0
